sensor_id;sensor_type;location;lat;lon;timestamp;temperature;humidity
62809;DHT22;48848;39.002;-94.584;2023-03-01T00:01:06;20.40;44.50
62809;DHT22;48848;39.002;-94.584;2023-03-01T00:03:32;20.40;44.70
62809;DHT22;48848;39.002;-94.584;2023-03-01T00:05:58;20.30;44.30
62809;DHT22;48848;39.002;-94.584;2023-03-01T00:08:24;20.40;44.20
62809;DHT22;48848;39.002;-94.584;2023-03-01T00:10:59;20.40;44.20
62809;DHT22;48848;39.002;-94.584;2023-03-01T00:13:25;20.40;44.20
62809;DHT22;48848;39.002;-94.584;2023-03-01T00:15:51;20.40;44.20
62809;DHT22;48848;39.002;-94.584;2023-03-01T00:18:16;20.40;44.20
62809;DHT22;48848;39.002;-94.584;2023-03-01T00:20:48;20.40;43.90
62809;DHT22;48848;39.002;-94.584;2023-03-01T00:23:14;20.50;43.90
62809;DHT22;48848;39.002;-94.584;2023-03-01T00:25:43;20.50;44.10
62809;DHT22;48848;39.002;-94.584;2023-03-01T00:28:09;20.50;44.00
62809;DHT22;48848;39.002;-94.584;2023-03-01T00:30:35;20.50;43.70
62809;DHT22;48848;39.002;-94.584;2023-03-01T00:33:01;20.50;43.90
62809;DHT22;48848;39.002;-94.584;2023-03-01T00:35:26;20.50;43.90
62809;DHT22;48848;39.002;-94.584;2023-03-01T00:37:52;20.50;44.00
62809;DHT22;48848;39.002;-94.584;2023-03-01T00:40:29;20.50;44.10
62809;DHT22;48848;39.002;-94.584;2023-03-01T00:42:55;20.50;44.00
62809;DHT22;48848;39.002;-94.584;2023-03-01T00:45:21;20.50;44.00
62809;DHT22;48848;39.002;-94.584;2023-03-01T00:47:49;20.50;44.10
62809;DHT22;48848;39.002;-94.584;2023-03-01T00:50:15;20.50;44.00
62809;DHT22;48848;39.002;-94.584;2023-03-01T00:52:41;20.60;44.10
62809;DHT22;48848;39.002;-94.584;2023-03-01T00:55:07;20.60;44.00
62809;DHT22;48848;39.002;-94.584;2023-03-01T00:57:33;20.60;44.00
62809;DHT22;48848;39.002;-94.584;2023-03-01T00:59:59;20.60;44.00
62809;DHT22;48848;39.002;-94.584;2023-03-01T01:02:25;20.60;44.10
62809;DHT22;48848;39.002;-94.584;2023-03-01T01:04:51;20.60;44.10
62809;DHT22;48848;39.002;-94.584;2023-03-01T01:07:17;20.60;44.80
62809;DHT22;48848;39.002;-94.584;2023-03-01T01:09:45;20.60;44.20
62809;DHT22;48848;39.002;-94.584;2023-03-01T01:12:11;20.60;44.00
62809;DHT22;48848;39.002;-94.584;2023-03-01T01:14:38;20.60;44.00
62809;DHT22;48848;39.002;-94.584;2023-03-01T01:17:04;20.60;44.10
62809;DHT22;48848;39.002;-94.584;2023-03-01T01:19:30;20.60;44.30
62809;DHT22;48848;39.002;-94.584;2023-03-01T01:21:56;20.60;44.10
62809;DHT22;48848;39.002;-94.584;2023-03-01T01:24:22;20.70;44.50
62809;DHT22;48848;39.002;-94.584;2023-03-01T01:26:48;20.60;44.50
62809;DHT22;48848;39.002;-94.584;2023-03-01T01:29:15;20.70;44.80
62809;DHT22;48848;39.002;-94.584;2023-03-01T01:31:42;20.70;44.70
62809;DHT22;48848;39.002;-94.584;2023-03-01T01:34:12;20.70;44.90
62809;DHT22;48848;39.002;-94.584;2023-03-01T01:36:38;20.70;44.70
62809;DHT22;48848;39.002;-94.584;2023-03-01T01:39:04;20.70;44.70
62809;DHT22;48848;39.002;-94.584;2023-03-01T01:41:30;20.70;44.50
62809;DHT22;48848;39.002;-94.584;2023-03-01T01:47:23;20.70;44.60
62809;DHT22;48848;39.002;-94.584;2023-03-01T01:49:38;20.70;44.50
62809;DHT22;48848;39.002;-94.584;2023-03-01T01:52:11;20.70;44.50
62809;DHT22;48848;39.002;-94.584;2023-03-01T01:54:45;20.70;44.80
62809;DHT22;48848;39.002;-94.584;2023-03-01T01:57:14;20.80;44.50
62809;DHT22;48848;39.002;-94.584;2023-03-01T01:59:42;20.80;44.20
62809;DHT22;48848;39.002;-94.584;2023-03-01T02:02:09;20.80;44.10
62809;DHT22;48848;39.002;-94.584;2023-03-01T02:04:35;20.70;44.00
62809;DHT22;48848;39.002;-94.584;2023-03-01T02:07:06;20.70;44.10
62809;DHT22;48848;39.002;-94.584;2023-03-01T02:09:34;20.70;44.10
62809;DHT22;48848;39.002;-94.584;2023-03-01T02:12:01;20.70;44.00
62809;DHT22;48848;39.002;-94.584;2023-03-01T02:14:27;20.70;43.90
62809;DHT22;48848;39.002;-94.584;2023-03-01T02:16:53;20.70;44.00
62809;DHT22;48848;39.002;-94.584;2023-03-01T02:19:28;20.70;43.90
62809;DHT22;48848;39.002;-94.584;2023-03-01T02:21:59;20.70;43.80
62809;DHT22;48848;39.002;-94.584;2023-03-01T02:24:47;20.70;44.00
62809;DHT22;48848;39.002;-94.584;2023-03-01T02:27:16;20.70;43.80
62809;DHT22;48848;39.002;-94.584;2023-03-01T02:29:42;20.70;43.80
62809;DHT22;48848;39.002;-94.584;2023-03-01T02:32:09;20.70;43.80
62809;DHT22;48848;39.002;-94.584;2023-03-01T02:34:36;20.70;44.10
62809;DHT22;48848;39.002;-94.584;2023-03-01T02:37:07;20.70;44.00
62809;DHT22;48848;39.002;-94.584;2023-03-01T02:39:39;20.70;44.20
62809;DHT22;48848;39.002;-94.584;2023-03-01T02:42:08;20.70;43.90
62809;DHT22;48848;39.002;-94.584;2023-03-01T02:44:36;20.60;43.80
62809;DHT22;48848;39.002;-94.584;2023-03-01T02:47:02;20.60;43.80
62809;DHT22;48848;39.002;-94.584;2023-03-01T02:49:31;20.60;43.80
62809;DHT22;48848;39.002;-94.584;2023-03-01T02:54:43;20.60;44.10
62809;DHT22;48848;39.002;-94.584;2023-03-01T02:57:12;20.60;44.00
62809;DHT22;48848;39.002;-94.584;2023-03-01T02:59:38;20.60;44.00
62809;DHT22;48848;39.002;-94.584;2023-03-01T03:02:17;20.60;43.80
62809;DHT22;48848;39.002;-94.584;2023-03-01T03:04:46;20.60;43.80
62809;DHT22;48848;39.002;-94.584;2023-03-01T03:07:12;20.60;44.00
62809;DHT22;48848;39.002;-94.584;2023-03-01T03:09:38;20.60;44.00
62809;DHT22;48848;39.002;-94.584;2023-03-01T03:12:04;20.60;43.80
62809;DHT22;48848;39.002;-94.584;2023-03-01T03:14:30;20.60;43.70
62809;DHT22;48848;39.002;-94.584;2023-03-01T03:17:00;20.60;43.70
62809;DHT22;48848;39.002;-94.584;2023-03-01T03:19:26;20.60;43.70
62809;DHT22;48848;39.002;-94.584;2023-03-01T03:21:52;20.60;43.70
62809;DHT22;48848;39.002;-94.584;2023-03-01T03:24:17;20.60;43.70
62809;DHT22;48848;39.002;-94.584;2023-03-01T03:26:43;20.60;44.00
62809;DHT22;48848;39.002;-94.584;2023-03-01T03:29:09;20.50;43.80
62809;DHT22;48848;39.002;-94.584;2023-03-01T03:31:35;20.50;43.50
62809;DHT22;48848;39.002;-94.584;2023-03-01T03:34:01;20.50;43.60
62809;DHT22;48848;39.002;-94.584;2023-03-01T03:36:27;20.50;43.30
62809;DHT22;48848;39.002;-94.584;2023-03-01T03:38:53;20.50;43.20
62809;DHT22;48848;39.002;-94.584;2023-03-01T03:41:19;20.50;43.30
62809;DHT22;48848;39.002;-94.584;2023-03-01T03:43:44;20.50;43.50
62809;DHT22;48848;39.002;-94.584;2023-03-01T03:46:11;20.50;43.30
62809;DHT22;48848;39.002;-94.584;2023-03-01T03:48:38;20.50;43.20
62809;DHT22;48848;39.002;-94.584;2023-03-01T03:51:04;20.50;42.90
62809;DHT22;48848;39.002;-94.584;2023-03-01T03:53:33;20.50;43.00
62809;DHT22;48848;39.002;-94.584;2023-03-01T03:55:59;20.50;43.20
62809;DHT22;48848;39.002;-94.584;2023-03-01T03:58:25;20.50;42.80
62809;DHT22;48848;39.002;-94.584;2023-03-01T04:00:52;20.50;42.80
62809;DHT22;48848;39.002;-94.584;2023-03-01T04:03:18;20.50;42.90
62809;DHT22;48848;39.002;-94.584;2023-03-01T04:05:45;20.50;42.60
62809;DHT22;48848;39.002;-94.584;2023-03-01T04:08:11;20.50;42.80
62809;DHT22;48848;39.002;-94.584;2023-03-01T04:10:41;20.50;42.90
62809;DHT22;48848;39.002;-94.584;2023-03-01T04:13:09;20.50;42.90
62809;DHT22;48848;39.002;-94.584;2023-03-01T04:15:36;20.40;42.90
62809;DHT22;48848;39.002;-94.584;2023-03-01T04:18:02;20.50;42.90
62809;DHT22;48848;39.002;-94.584;2023-03-01T04:20:29;20.40;42.70
62809;DHT22;48848;39.002;-94.584;2023-03-01T04:23:01;20.40;42.80
62809;DHT22;48848;39.002;-94.584;2023-03-01T04:25:40;20.50;42.80
62809;DHT22;48848;39.002;-94.584;2023-03-01T04:28:06;20.40;43.10
62809;DHT22;48848;39.002;-94.584;2023-03-01T04:30:32;20.40;42.80
62809;DHT22;48848;39.002;-94.584;2023-03-01T04:33:02;20.40;42.80
62809;DHT22;48848;39.002;-94.584;2023-03-01T04:35:29;20.40;42.60
62809;DHT22;48848;39.002;-94.584;2023-03-01T04:37:55;20.40;42.60
62809;DHT22;48848;39.002;-94.584;2023-03-01T04:40:21;20.40;42.80
62809;DHT22;48848;39.002;-94.584;2023-03-01T04:42:48;20.40;42.60
62809;DHT22;48848;39.002;-94.584;2023-03-01T04:45:14;20.40;42.90
62809;DHT22;48848;39.002;-94.584;2023-03-01T04:47:40;20.30;43.10
62809;DHT22;48848;39.002;-94.584;2023-03-01T04:50:06;20.30;43.10
62809;DHT22;48848;39.002;-94.584;2023-03-01T04:52:32;20.30;43.00
62809;DHT22;48848;39.002;-94.584;2023-03-01T04:54:58;20.30;43.00
62809;DHT22;48848;39.002;-94.584;2023-03-01T04:57:24;20.30;43.10
62809;DHT22;48848;39.002;-94.584;2023-03-01T04:59:50;20.30;43.00
62809;DHT22;48848;39.002;-94.584;2023-03-01T05:02:16;20.30;42.80
62809;DHT22;48848;39.002;-94.584;2023-03-01T05:04:42;20.30;43.10
62809;DHT22;48848;39.002;-94.584;2023-03-01T05:07:07;20.20;43.40
62809;DHT22;48848;39.002;-94.584;2023-03-01T05:09:33;20.20;43.10
62809;DHT22;48848;39.002;-94.584;2023-03-01T05:11:59;20.20;43.00
62809;DHT22;48848;39.002;-94.584;2023-03-01T05:14:25;20.20;42.90
62809;DHT22;48848;39.002;-94.584;2023-03-01T05:16:51;20.20;42.90
62809;DHT22;48848;39.002;-94.584;2023-03-01T05:19:17;20.10;43.10
62809;DHT22;48848;39.002;-94.584;2023-03-01T05:21:48;20.10;43.30
62809;DHT22;48848;39.002;-94.584;2023-03-01T05:24:35;20.10;43.40
62809;DHT22;48848;39.002;-94.584;2023-03-01T05:27:01;20.10;42.90
62809;DHT22;48848;39.002;-94.584;2023-03-01T05:29:28;20.10;43.40
62809;DHT22;48848;39.002;-94.584;2023-03-01T05:31:58;20.10;43.40
62809;DHT22;48848;39.002;-94.584;2023-03-01T05:34:24;20.00;43.00
62809;DHT22;48848;39.002;-94.584;2023-03-01T05:36:51;20.00;44.00
62809;DHT22;48848;39.002;-94.584;2023-03-01T05:39:19;20.00;43.80
62809;DHT22;48848;39.002;-94.584;2023-03-01T05:41:46;20.00;44.00
62809;DHT22;48848;39.002;-94.584;2023-03-01T05:44:12;20.00;43.90
62809;DHT22;48848;39.002;-94.584;2023-03-01T05:46:38;20.00;43.90
62809;DHT22;48848;39.002;-94.584;2023-03-01T05:49:04;20.00;43.90
62809;DHT22;48848;39.002;-94.584;2023-03-01T05:51:30;20.00;43.90
62809;DHT22;48848;39.002;-94.584;2023-03-01T05:53:57;20.00;43.80
62809;DHT22;48848;39.002;-94.584;2023-03-01T05:56:23;20.00;43.80
62809;DHT22;48848;39.002;-94.584;2023-03-01T05:58:49;20.00;43.90
62809;DHT22;48848;39.002;-94.584;2023-03-01T06:01:15;19.90;43.80
62809;DHT22;48848;39.002;-94.584;2023-03-01T06:03:41;20.00;43.80
62809;DHT22;48848;39.002;-94.584;2023-03-01T06:06:07;20.00;43.70
62809;DHT22;48848;39.002;-94.584;2023-03-01T06:08:33;19.90;43.60
62809;DHT22;48848;39.002;-94.584;2023-03-01T06:10:59;19.90;43.50
62809;DHT22;48848;39.002;-94.584;2023-03-01T06:13:24;19.90;43.40
62809;DHT22;48848;39.002;-94.584;2023-03-01T06:15:50;19.90;43.40
62809;DHT22;48848;39.002;-94.584;2023-03-01T06:18:17;19.90;43.40
62809;DHT22;48848;39.002;-94.584;2023-03-01T06:20:43;19.90;43.40
62809;DHT22;48848;39.002;-94.584;2023-03-01T06:23:08;19.90;43.40
62809;DHT22;48848;39.002;-94.584;2023-03-01T06:25:34;19.90;43.30
62809;DHT22;48848;39.002;-94.584;2023-03-01T06:28:00;19.80;43.30
62809;DHT22;48848;39.002;-94.584;2023-03-01T06:30:26;19.90;43.40
62809;DHT22;48848;39.002;-94.584;2023-03-01T06:32:52;19.80;43.40
62809;DHT22;48848;39.002;-94.584;2023-03-01T06:35:26;19.80;43.40
62809;DHT22;48848;39.002;-94.584;2023-03-01T06:37:55;19.80;43.50
62809;DHT22;48848;39.002;-94.584;2023-03-01T06:40:21;19.80;43.40
62809;DHT22;48848;39.002;-94.584;2023-03-01T06:42:47;19.80;43.50
62809;DHT22;48848;39.002;-94.584;2023-03-01T06:45:17;19.80;43.60
62809;DHT22;48848;39.002;-94.584;2023-03-01T06:47:43;19.80;43.40
62809;DHT22;48848;39.002;-94.584;2023-03-01T06:50:09;19.80;43.40
62809;DHT22;48848;39.002;-94.584;2023-03-01T06:52:35;19.70;43.60
62809;DHT22;48848;39.002;-94.584;2023-03-01T06:55:01;19.70;43.70
62809;DHT22;48848;39.002;-94.584;2023-03-01T06:57:27;19.70;43.50
62809;DHT22;48848;39.002;-94.584;2023-03-01T06:59:53;19.70;43.40
62809;DHT22;48848;39.002;-94.584;2023-03-01T07:02:19;19.70;43.30
62809;DHT22;48848;39.002;-94.584;2023-03-01T07:04:45;19.70;43.50
62809;DHT22;48848;39.002;-94.584;2023-03-01T07:07:14;19.70;43.50
62809;DHT22;48848;39.002;-94.584;2023-03-01T07:09:40;19.60;43.50
62809;DHT22;48848;39.002;-94.584;2023-03-01T07:12:07;19.60;43.40
62809;DHT22;48848;39.002;-94.584;2023-03-01T07:14:34;19.60;43.40
62809;DHT22;48848;39.002;-94.584;2023-03-01T07:17:00;19.60;43.50
62809;DHT22;48848;39.002;-94.584;2023-03-01T07:19:26;19.60;43.40
62809;DHT22;48848;39.002;-94.584;2023-03-01T07:21:53;19.60;43.40
62809;DHT22;48848;39.002;-94.584;2023-03-01T07:24:21;19.50;43.40
62809;DHT22;48848;39.002;-94.584;2023-03-01T07:26:49;19.60;43.40
62809;DHT22;48848;39.002;-94.584;2023-03-01T07:29:15;19.50;43.30
62809;DHT22;48848;39.002;-94.584;2023-03-01T07:31:41;19.50;43.40
62809;DHT22;48848;39.002;-94.584;2023-03-01T07:34:08;19.50;43.30
62809;DHT22;48848;39.002;-94.584;2023-03-01T07:36:34;19.50;43.30
62809;DHT22;48848;39.002;-94.584;2023-03-01T07:39:00;19.50;43.20
62809;DHT22;48848;39.002;-94.584;2023-03-01T07:41:28;19.50;43.20
62809;DHT22;48848;39.002;-94.584;2023-03-01T07:43:54;19.50;43.20
62809;DHT22;48848;39.002;-94.584;2023-03-01T07:46:20;19.40;43.30
62809;DHT22;48848;39.002;-94.584;2023-03-01T07:48:46;19.40;43.20
62809;DHT22;48848;39.002;-94.584;2023-03-01T07:51:12;19.40;43.30
62809;DHT22;48848;39.002;-94.584;2023-03-01T07:53:38;19.40;43.20
62809;DHT22;48848;39.002;-94.584;2023-03-01T07:56:06;19.30;43.20
62809;DHT22;48848;39.002;-94.584;2023-03-01T07:58:33;19.30;43.20
62809;DHT22;48848;39.002;-94.584;2023-03-01T08:01:06;19.30;43.30
62809;DHT22;48848;39.002;-94.584;2023-03-01T08:03:33;19.20;43.30
62809;DHT22;48848;39.002;-94.584;2023-03-01T08:06:01;19.30;43.40
62809;DHT22;48848;39.002;-94.584;2023-03-01T08:08:27;19.30;43.30
62809;DHT22;48848;39.002;-94.584;2023-03-01T08:10:57;19.30;43.30
62809;DHT22;48848;39.002;-94.584;2023-03-01T08:13:23;19.30;43.20
62809;DHT22;48848;39.002;-94.584;2023-03-01T08:15:49;19.30;43.10
62809;DHT22;48848;39.002;-94.584;2023-03-01T08:18:16;19.30;43.10
62809;DHT22;48848;39.002;-94.584;2023-03-01T08:20:42;19.20;43.10
62809;DHT22;48848;39.002;-94.584;2023-03-01T08:23:08;19.20;43.10
62809;DHT22;48848;39.002;-94.584;2023-03-01T08:25:34;19.20;43.20
62809;DHT22;48848;39.002;-94.584;2023-03-01T08:28:00;19.20;43.10
62809;DHT22;48848;39.002;-94.584;2023-03-01T08:30:25;19.20;43.10
62809;DHT22;48848;39.002;-94.584;2023-03-01T08:32:51;19.10;43.00
62809;DHT22;48848;39.002;-94.584;2023-03-01T08:35:17;19.10;43.00
62809;DHT22;48848;39.002;-94.584;2023-03-01T08:37:44;19.10;43.10
62809;DHT22;48848;39.002;-94.584;2023-03-01T08:40:10;19.10;43.10
62809;DHT22;48848;39.002;-94.584;2023-03-01T08:42:36;19.00;43.10
62809;DHT22;48848;39.002;-94.584;2023-03-01T08:45:03;19.00;43.10
62809;DHT22;48848;39.002;-94.584;2023-03-01T08:47:29;19.10;43.10
62809;DHT22;48848;39.002;-94.584;2023-03-01T08:49:55;19.00;43.10
62809;DHT22;48848;39.002;-94.584;2023-03-01T08:52:20;19.00;43.10
62809;DHT22;48848;39.002;-94.584;2023-03-01T08:54:47;19.00;43.10
62809;DHT22;48848;39.002;-94.584;2023-03-01T08:57:13;19.00;43.10
62809;DHT22;48848;39.002;-94.584;2023-03-01T08:59:39;19.00;43.00
62809;DHT22;48848;39.002;-94.584;2023-03-01T09:02:08;18.90;43.10
62809;DHT22;48848;39.002;-94.584;2023-03-01T09:04:35;18.90;43.20
62809;DHT22;48848;39.002;-94.584;2023-03-01T09:07:01;18.90;43.20
62809;DHT22;48848;39.002;-94.584;2023-03-01T09:09:27;18.90;43.00
62809;DHT22;48848;39.002;-94.584;2023-03-01T09:11:53;18.90;43.20
62809;DHT22;48848;39.002;-94.584;2023-03-01T09:14:19;18.90;43.10
62809;DHT22;48848;39.002;-94.584;2023-03-01T09:16:45;18.80;43.20
62809;DHT22;48848;39.002;-94.584;2023-03-01T09:19:10;18.80;43.20
62809;DHT22;48848;39.002;-94.584;2023-03-01T09:21:36;18.80;43.20
62809;DHT22;48848;39.002;-94.584;2023-03-01T09:24:02;18.80;43.10
62809;DHT22;48848;39.002;-94.584;2023-03-01T09:26:28;18.80;43.10
62809;DHT22;48848;39.002;-94.584;2023-03-01T09:28:55;18.80;43.00
62809;DHT22;48848;39.002;-94.584;2023-03-01T09:31:22;18.70;43.20
62809;DHT22;48848;39.002;-94.584;2023-03-01T09:33:49;18.70;43.30
62809;DHT22;48848;39.002;-94.584;2023-03-01T09:36:16;18.70;43.30
62809;DHT22;48848;39.002;-94.584;2023-03-01T09:38:42;18.60;43.30
62809;DHT22;48848;39.002;-94.584;2023-03-01T09:44:00;18.60;43.30
62809;DHT22;48848;39.002;-94.584;2023-03-01T09:46:37;18.60;43.40
62809;DHT22;48848;39.002;-94.584;2023-03-01T09:49:17;18.60;43.30
62809;DHT22;48848;39.002;-94.584;2023-03-01T09:51:46;18.60;43.40
62809;DHT22;48848;39.002;-94.584;2023-03-01T09:54:14;18.60;43.40
62809;DHT22;48848;39.002;-94.584;2023-03-01T10:05:00;18.50;43.30
62809;DHT22;48848;39.002;-94.584;2023-03-01T10:10:04;18.50;43.50
62809;DHT22;48848;39.002;-94.584;2023-03-01T10:12:33;18.50;43.50
62809;DHT22;48848;39.002;-94.584;2023-03-01T10:20:12;18.40;43.70
62809;DHT22;48848;39.002;-94.584;2023-03-01T10:22:39;18.30;43.60
62809;DHT22;48848;39.002;-94.584;2023-03-01T10:25:05;18.30;43.70
62809;DHT22;48848;39.002;-94.584;2023-03-01T10:32:56;18.30;43.70
62809;DHT22;48848;39.002;-94.584;2023-03-01T10:35:24;18.30;43.50
62809;DHT22;48848;39.002;-94.584;2023-03-01T10:38:05;18.30;43.60
62809;DHT22;48848;39.002;-94.584;2023-03-01T10:40:32;18.30;43.60
62809;DHT22;48848;39.002;-94.584;2023-03-01T10:42:58;18.30;43.80
62809;DHT22;48848;39.002;-94.584;2023-03-01T10:50:30;18.20;43.70
62809;DHT22;48848;39.002;-94.584;2023-03-01T10:52:57;18.20;43.70
62809;DHT22;48848;39.002;-94.584;2023-03-01T10:55:26;18.20;43.70
62809;DHT22;48848;39.002;-94.584;2023-03-01T10:58:09;18.20;43.80
62809;DHT22;48848;39.002;-94.584;2023-03-01T11:00:49;18.20;43.70
62809;DHT22;48848;39.002;-94.584;2023-03-01T11:03:16;18.20;43.90
62809;DHT22;48848;39.002;-94.584;2023-03-01T11:05:54;18.10;44.00
62809;DHT22;48848;39.002;-94.584;2023-03-01T11:08:40;18.10;44.00
62809;DHT22;48848;39.002;-94.584;2023-03-01T11:13:32;18.10;44.00
62809;DHT22;48848;39.002;-94.584;2023-03-01T11:16:02;18.10;44.00
62809;DHT22;48848;39.002;-94.584;2023-03-01T11:18:29;18.10;43.90
62809;DHT22;48848;39.002;-94.584;2023-03-01T11:20:56;18.10;43.90
62809;DHT22;48848;39.002;-94.584;2023-03-01T11:23:22;18.00;43.90
62809;DHT22;48848;39.002;-94.584;2023-03-01T11:25:50;18.10;43.90
62809;DHT22;48848;39.002;-94.584;2023-03-01T11:28:19;18.00;43.80
62809;DHT22;48848;39.002;-94.584;2023-03-01T11:36:03;18.00;44.00
62809;DHT22;48848;39.002;-94.584;2023-03-01T11:38:32;18.00;43.90
62809;DHT22;48848;39.002;-94.584;2023-03-01T11:41:01;18.00;43.80
62809;DHT22;48848;39.002;-94.584;2023-03-01T11:46:11;17.90;43.90
62809;DHT22;48848;39.002;-94.584;2023-03-01T11:48:49;17.90;43.90
62809;DHT22;48848;39.002;-94.584;2023-03-01T11:51:19;18.20;45.40
62809;DHT22;48848;39.002;-94.584;2023-03-01T11:53:50;19.20;43.90
62809;DHT22;48848;39.002;-94.584;2023-03-01T11:59:03;20.90;40.50
62809;DHT22;48848;39.002;-94.584;2023-03-01T12:01:51;21.40;39.20
62809;DHT22;48848;39.002;-94.584;2023-03-01T12:09:56;21.60;36.90
62809;DHT22;48848;39.002;-94.584;2023-03-01T12:22:55;19.00;42.30
62809;DHT22;48848;39.002;-94.584;2023-03-01T12:35:51;21.50;39.40
62809;DHT22;48848;39.002;-94.584;2023-03-01T12:38:25;21.70;38.00
62809;DHT22;48848;39.002;-94.584;2023-03-01T12:48:58;19.30;41.70
62809;DHT22;48848;39.002;-94.584;2023-03-01T12:51:28;19.20;42.30
62809;DHT22;48848;39.002;-94.584;2023-03-01T12:53:55;19.10;42.60
62809;DHT22;48848;39.002;-94.584;2023-03-01T12:56:24;18.40;43.90
62809;DHT22;48848;39.002;-94.584;2023-03-01T13:01:48;17.70;46.00
62809;DHT22;48848;39.002;-94.584;2023-03-01T13:04:16;17.50;46.40
62809;DHT22;48848;39.002;-94.584;2023-03-01T13:11:48;17.60;46.50
62809;DHT22;48848;39.002;-94.584;2023-03-01T13:16:46;20.30;42.20
62809;DHT22;48848;39.002;-94.584;2023-03-01T13:19:18;20.90;40.40
62809;DHT22;48848;39.002;-94.584;2023-03-01T13:21:45;20.10;42.00
62809;DHT22;48848;39.002;-94.584;2023-03-01T13:24:24;19.30;43.10
62809;DHT22;48848;39.002;-94.584;2023-03-01T13:29:28;18.50;44.50
62809;DHT22;48848;39.002;-94.584;2023-03-01T13:32:18;18.10;45.70
62809;DHT22;48848;39.002;-94.584;2023-03-01T13:34:45;17.80;45.90
62809;DHT22;48848;39.002;-94.584;2023-03-01T13:37:18;17.70;46.30
62809;DHT22;48848;39.002;-94.584;2023-03-01T13:39:44;17.60;46.50
62809;DHT22;48848;39.002;-94.584;2023-03-01T13:44:55;17.80;47.30
62809;DHT22;48848;39.002;-94.584;2023-03-01T13:47:21;17.70;46.30
62809;DHT22;48848;39.002;-94.584;2023-03-01T13:50:00;17.60;46.20
62809;DHT22;48848;39.002;-94.584;2023-03-01T13:55:03;17.60;47.00
62809;DHT22;48848;39.002;-94.584;2023-03-01T13:57:31;18.60;45.80
62809;DHT22;48848;39.002;-94.584;2023-03-01T13:59:58;19.90;43.10
62809;DHT22;48848;39.002;-94.584;2023-03-01T14:02:24;20.50;41.10
62809;DHT22;48848;39.002;-94.584;2023-03-01T14:04:57;19.90;40.70
62809;DHT22;48848;39.002;-94.584;2023-03-01T14:07:24;19.00;42.50
62809;DHT22;48848;39.002;-94.584;2023-03-01T14:10:23;18.90;44.30
62809;DHT22;48848;39.002;-94.584;2023-03-01T14:12:44;18.60;44.10
62809;DHT22;48848;39.002;-94.584;2023-03-01T14:20:21;17.90;45.90
62809;DHT22;48848;39.002;-94.584;2023-03-01T14:22:49;17.80;45.90
62809;DHT22;48848;39.002;-94.584;2023-03-01T14:25:28;17.80;47.10
62809;DHT22;48848;39.002;-94.584;2023-03-01T14:27:59;17.70;46.40
62809;DHT22;48848;39.002;-94.584;2023-03-01T14:30:30;17.60;46.40
62809;DHT22;48848;39.002;-94.584;2023-03-01T14:32:58;17.60;46.60
62809;DHT22;48848;39.002;-94.584;2023-03-01T14:35:25;17.50;46.60
62809;DHT22;48848;39.002;-94.584;2023-03-01T14:37:51;17.50;46.40
62809;DHT22;48848;39.002;-94.584;2023-03-01T14:40:22;17.40;46.50
62809;DHT22;48848;39.002;-94.584;2023-03-01T14:42:49;17.80;46.50
62809;DHT22;48848;39.002;-94.584;2023-03-01T14:45:16;19.20;44.50
62809;DHT22;48848;39.002;-94.584;2023-03-01T14:47:43;20.30;42.10
62809;DHT22;48848;39.002;-94.584;2023-03-01T14:50:15;20.70;39.80
62809;DHT22;48848;39.002;-94.584;2023-03-01T14:52:44;19.50;40.90
62809;DHT22;48848;39.002;-94.584;2023-03-01T14:55:44;18.80;42.80
62809;DHT22;48848;39.002;-94.584;2023-03-01T14:58:04;18.30;43.90
62809;DHT22;48848;39.002;-94.584;2023-03-01T15:00:31;18.10;44.50
62809;DHT22;48848;39.002;-94.584;2023-03-01T15:03:00;17.90;45.10
62809;DHT22;48848;39.002;-94.584;2023-03-01T15:05:32;17.80;45.50
62809;DHT22;48848;39.002;-94.584;2023-03-01T15:07:58;17.70;45.80
62809;DHT22;48848;39.002;-94.584;2023-03-01T15:10:26;17.70;46.00
62809;DHT22;48848;39.002;-94.584;2023-03-01T15:12:52;17.70;45.90
62809;DHT22;48848;39.002;-94.584;2023-03-01T15:15:19;17.80;45.70
62809;DHT22;48848;39.002;-94.584;2023-03-01T15:17:48;18.00;45.10
62809;DHT22;48848;39.002;-94.584;2023-03-01T15:20:17;17.80;45.40
62809;DHT22;48848;39.002;-94.584;2023-03-01T15:22:43;17.70;45.50
62809;DHT22;48848;39.002;-94.584;2023-03-01T15:25:16;17.60;45.80
62809;DHT22;48848;39.002;-94.584;2023-03-01T15:27:45;17.60;45.60
62809;DHT22;48848;39.002;-94.584;2023-03-01T15:30:22;17.60;45.70
62809;DHT22;48848;39.002;-94.584;2023-03-01T15:32:59;17.60;45.50
62809;DHT22;48848;39.002;-94.584;2023-03-01T15:35:44;17.70;45.30
62809;DHT22;48848;39.002;-94.584;2023-03-01T15:40:51;17.50;45.60
62809;DHT22;48848;39.002;-94.584;2023-03-01T15:46:01;17.90;44.60
62809;DHT22;48848;39.002;-94.584;2023-03-01T15:48:27;17.90;44.50
62809;DHT22;48848;39.002;-94.584;2023-03-01T15:50:56;17.90;44.50
62809;DHT22;48848;39.002;-94.584;2023-03-01T15:53:23;18.00;44.20
62809;DHT22;48848;39.002;-94.584;2023-03-01T15:55:49;18.10;44.20
62809;DHT22;48848;39.002;-94.584;2023-03-01T15:58:17;18.20;44.10
62809;DHT22;48848;39.002;-94.584;2023-03-01T16:00:45;18.00;44.10
62809;DHT22;48848;39.002;-94.584;2023-03-01T16:03:14;18.10;43.90
62809;DHT22;48848;39.002;-94.584;2023-03-01T16:05:42;18.10;43.50
62809;DHT22;48848;39.002;-94.584;2023-03-01T16:08:08;18.20;43.30
62809;DHT22;48848;39.002;-94.584;2023-03-01T16:10:34;18.30;42.80
62809;DHT22;48848;39.002;-94.584;2023-03-01T16:13:00;18.30;43.10
62809;DHT22;48848;39.002;-94.584;2023-03-01T16:15:30;18.20;42.90
62809;DHT22;48848;39.002;-94.584;2023-03-01T16:17:57;18.30;42.80
62809;DHT22;48848;39.002;-94.584;2023-03-01T16:20:25;18.40;42.30
62809;DHT22;48848;39.002;-94.584;2023-03-01T16:22:52;18.40;42.40
62809;DHT22;48848;39.002;-94.584;2023-03-01T16:25:19;18.30;43.10
62809;DHT22;48848;39.002;-94.584;2023-03-01T16:27:47;18.30;42.80
62809;DHT22;48848;39.002;-94.584;2023-03-01T16:30:13;18.40;42.60
62809;DHT22;48848;39.002;-94.584;2023-03-01T16:32:40;18.40;42.40
62809;DHT22;48848;39.002;-94.584;2023-03-01T16:35:06;18.40;42.40
62809;DHT22;48848;39.002;-94.584;2023-03-01T16:37:33;18.40;42.30
62809;DHT22;48848;39.002;-94.584;2023-03-01T16:39:59;18.30;42.10
62809;DHT22;48848;39.002;-94.584;2023-03-01T16:42:35;18.30;41.90
62809;DHT22;48848;39.002;-94.584;2023-03-01T16:45:02;18.40;42.00
62809;DHT22;48848;39.002;-94.584;2023-03-01T16:47:28;18.30;41.90
62809;DHT22;48848;39.002;-94.584;2023-03-01T16:49:54;18.30;41.90
62809;DHT22;48848;39.002;-94.584;2023-03-01T16:52:21;18.30;41.50
62809;DHT22;48848;39.002;-94.584;2023-03-01T16:54:47;18.30;41.50
62809;DHT22;48848;39.002;-94.584;2023-03-01T16:57:13;18.30;41.40
62809;DHT22;48848;39.002;-94.584;2023-03-01T16:59:39;18.30;41.80